Time;durP1;ratioP1;P1;durP2;ratioP2;P2;SDS_P1;SDS_P2;PMS_P1;PMS_P2;Temp;Humidity;BMP_temperature;BMP_pressure;BME280_temperature;BME280_humidity;BME280_pressure;Samples;Min_cycle;Max_cycle;Signal;HPM_P1;HPM_P2
2022/08/10 00:00:20;;;;;;;2.67;1.52;;;21.50;44.40;;;17.78;55.63;96014.66;4929281;29;20114;-45
2022/08/10 00:02:56;;;;;;;4.03;1.43;;;21.40;44.30;;;17.75;55.72;96017.13;4930389;29;20038;-46
2022/08/10 00:05:27;;;;;;;1.90;1.38;;;21.40;44.60;;;17.73;55.96;96011.22;4932793;29;20385;-44
2022/08/10 00:07:54;;;;;;;8.98;1.92;;;21.40;44.60;;;17.76;55.84;96019.50;4945431;28;20023;-44
2022/08/10 00:10:23;;;;;;;4.20;1.40;;;21.40;44.70;;;17.77;56.03;96012.25;4940399;28;20054;-44
2022/08/10 00:12:49;;;;;;;2.53;1.48;;;21.30;44.80;;;17.77;56.33;96018.44;4945401;28;20081;-45
2022/08/10 00:15:21;;;;;;;2.25;1.35;;;21.40;44.90;;;17.70;56.80;96012.59;4948312;28;20110;-49
2022/08/10 00:17:47;;;;;;;1.65;1.40;;;21.30;45.20;;;17.62;56.94;96005.25;4945097;28;20026;-48
2022/08/10 00:20:14;;;;;;;2.55;1.85;;;21.30;45.20;;;17.60;57.29;96003.94;4941311;28;20034;-44
2022/08/10 00:22:50;;;;;;;2.47;1.40;;;21.20;45.30;;;17.54;57.55;96003.22;4934260;28;20109;-44
2022/08/10 00:25:21;;;;;;;2.72;1.33;;;21.20;45.50;;;17.40;58.20;96005.13;4955325;28;20042;-48
2022/08/10 00:27:47;;;;;;;1.55;1.30;;;21.20;45.60;;;17.37;58.37;96006.53;4946937;28;20490;-43
2022/08/10 00:30:13;;;;;;;2.35;1.70;;;21.10;45.60;;;17.35;58.42;96009.50;4948070;28;20135;-44
2022/08/10 00:32:39;;;;;;;2.78;1.25;;;21.00;45.80;;;17.29;58.79;96002.59;4931962;29;20035;-45
2022/08/10 00:35:20;;;;;;;2.90;1.60;;;21.00;46.00;;;17.25;59.26;95995.44;4931781;29;20118;-44
2022/08/10 00:37:46;;;;;;;5.20;2.08;;;20.90;46.30;;;17.18;59.46;96003.09;4933483;29;20027;-43
2022/08/10 00:40:12;;;;;;;2.05;1.50;;;20.90;46.20;;;17.11;59.42;96000.78;4946912;28;20039;-44
2022/08/10 00:42:41;;;;;;;2.38;1.73;;;20.80;46.40;;;17.06;59.55;95996.28;4948091;28;20034;-46
2022/08/10 00:45:10;;;;;;;3.75;1.35;;;20.80;46.60;;;17.06;59.28;95992.78;4932656;29;20035;-47
2022/08/10 00:47:37;;;;;;;6.00;1.60;;;20.80;46.60;;;17.03;59.89;95991.50;4944965;28;20032;-43
2022/08/10 00:50:13;;;;;;;2.33;1.65;;;20.70;46.80;;;17.01;59.26;95990.97;4938397;28;20452;-51
2022/08/10 00:52:39;;;;;;;2.15;1.40;;;20.70;47.00;;;17.02;59.25;95992.59;4935002;28;20027;-46
2022/08/10 00:55:06;;;;;;;1.83;1.40;;;20.70;47.00;;;17.03;59.02;95991.50;4952090;28;20032;-46
2022/08/10 00:57:33;;;;;;;4.63;1.60;;;20.60;47.00;;;17.06;58.92;95990.09;4950747;28;20033;-45
2022/08/10 00:59:59;;;;;;;2.53;1.70;;;20.70;47.10;;;17.04;58.58;95982.31;4947527;28;20035;-43
2022/08/10 01:02:31;;;;;;;3.20;1.50;;;20.70;47.10;;;17.06;58.71;95979.34;4946620;28;20030;-43
2022/08/10 01:05:10;;;;;;;5.07;1.50;;;20.70;47.10;;;17.08;58.45;95975.28;4947120;28;20118;-44
2022/08/10 01:08:18;;;;;;;1.70;1.50;;;20.70;47.20;;;17.10;58.38;95975.75;4948985;28;20093;-46
2022/08/10 01:11:16;;;;;;;2.25;1.50;;;20.70;47.20;;;17.08;58.56;95967.19;4952104;28;20034;-46
2022/08/10 01:14:21;;;;;;;1.90;1.40;;;20.70;47.20;;;17.07;58.85;95962.88;4951496;28;20038;-44
2022/08/10 01:17:26;;;;;;;2.47;1.48;;;20.70;47.20;;;17.08;58.93;95959.13;4950382;28;20425;-44
2022/08/10 01:20:26;;;;;;;3.38;1.60;;;20.70;47.20;;;17.08;59.00;95958.31;4951939;28;20057;-44
2022/08/10 01:23:51;;;;;;;3.78;1.63;;;20.70;47.30;;;17.07;59.34;95954.00;4946287;28;20066;-44
2022/08/10 01:27:28;;;;;;;1.95;1.40;;;20.70;47.40;;;17.03;60.03;95967.28;4950927;28;20027;-45
2022/08/10 01:30:08;;;;;;;2.83;1.70;;;20.70;47.40;;;16.97;60.12;95968.44;4950339;29;20125;-44
2022/08/10 01:33:20;;;;;;;3.80;1.83;;;20.60;47.50;;;16.92;60.48;95962.34;4950630;29;20023;-48
2022/08/10 01:36:11;;;;;;;2.60;1.60;;;20.60;47.70;;;16.87;60.60;95963.25;4950649;29;20037;-43
2022/08/10 01:38:49;;;;;;;1.80;1.67;;;20.50;47.80;;;16.85;60.62;95958.16;4951869;28;20019;-46
2022/08/10 01:41:29;;;;;;;3.35;1.70;;;20.50;47.80;;;16.81;60.72;95961.75;4951527;28;20031;-45
2022/08/10 01:44:08;;;;;;;3.30;1.60;;;20.50;48.00;;;16.78;61.08;95962.34;4950296;28;20023;-41
2022/08/10 01:46:41;;;;;;;2.47;1.73;;;20.50;48.00;;;16.78;60.99;95965.03;4953023;28;20038;-44
2022/08/10 01:49:12;;;;;;;2.05;1.67;;;20.50;48.10;;;16.77;60.79;95964.22;4951155;28;20045;-45
2022/08/10 01:51:49;;;;;;;3.75;1.70;;;20.50;48.20;;;16.76;61.07;95968.00;4941538;28;20133;-47
2022/08/10 01:54:27;;;;;;;3.50;1.48;;;20.50;48.30;;;16.75;61.15;95961.03;4938391;28;20037;-43
2022/08/10 01:56:58;;;;;;;4.88;1.65;;;20.50;48.40;;;16.74;61.37;95966.69;4955271;28;20114;-42
2022/08/10 01:59:38;;;;;;;2.88;1.80;;;20.40;48.40;;;16.71;61.31;95962.69;4970560;28;20037;-41
2022/08/10 02:02:14;;;;;;;3.45;1.60;;;20.40;48.50;;;16.69;61.43;95959.47;4973565;28;20054;-42
2022/08/10 02:04:53;;;;;;;3.55;1.70;;;20.40;48.60;;;16.65;61.35;95977.31;4961127;28;20428;-42
2022/08/10 02:07:30;;;;;;;2.30;1.52;;;20.30;48.60;;;16.60;61.76;95972.78;4954170;28;20385;-43
2022/08/10 02:10:05;;;;;;;5.70;1.63;;;20.30;48.70;;;16.56;61.84;95968.31;4922226;28;20125;-42
2022/08/10 02:12:36;;;;;;;2.75;1.75;;;20.30;48.80;;;16.51;61.85;95973.75;4950250;28;20082;-49
2022/08/10 02:15:20;;;;;;;5.25;1.80;;;20.20;48.80;;;16.47;62.12;95973.53;4947303;28;20033;-42
2022/08/10 02:17:54;;;;;;;2.13;1.50;;;20.20;48.90;;;16.43;62.01;95973.31;4950629;28;20113;-43
2022/08/10 02:20:30;;;;;;;2.03;1.83;;;20.20;48.90;;;16.39;62.35;95974.22;4949693;28;20034;-43
2022/08/10 02:23:07;;;;;;;3.42;1.35;;;20.20;49.00;;;16.36;62.34;95975.59;4938023;28;20146;-49
2022/08/10 02:25:43;;;;;;;2.63;1.75;;;20.10;49.10;;;16.30;62.50;95974.06;4953499;28;20501;-44
2022/08/10 02:28:19;;;;;;;3.22;1.60;;;20.10;49.20;;;16.24;63.08;95966.38;4934395;29;20151;-43
2022/08/10 02:30:56;;;;;;;2.97;1.73;;;20.00;49.20;;;16.18;63.41;95971.00;4948917;28;20525;-42
2022/08/10 02:33:26;;;;;;;4.32;2.10;;;20.00;49.30;;;16.11;63.68;95959.84;4949684;28;20035;-44
2022/08/10 02:35:56;;;;;;;2.95;1.70;;;19.90;49.40;;;16.04;63.81;95962.84;4950585;28;20080;-43
2022/08/10 02:38:36;;;;;;;2.60;1.83;;;19.90;49.50;;;15.93;64.17;95951.47;4950308;28;20125;-45
2022/08/10 02:41:18;;;;;;;2.95;1.85;;;19.80;49.80;;;15.85;64.59;95948.63;4953280;28;20545;-43
2022/08/10 02:44:08;;;;;;;4.22;2.00;;;19.80;50.00;;;15.83;64.63;95959.66;4936909;28;20049;-43
2022/08/10 02:46:47;;;;;;;4.30;2.13;;;19.70;50.00;;;15.75;65.04;95948.75;4933609;29;20110;-44
2022/08/10 02:49:26;;;;;;;2.35;1.75;;;19.60;50.10;;;15.71;65.19;95952.00;4930746;28;20080;-44
2022/08/10 02:52:27;;;;;;;2.28;1.80;;;19.60;50.30;;;15.69;65.23;95950.69;4941195;28;20054;-48
2022/08/10 02:55:41;;;;;;;3.83;2.00;;;19.60;50.40;;;15.63;65.53;95951.81;4972332;28;20111;-47
2022/08/10 02:58:24;;;;;;;5.78;2.13;;;19.50;50.40;;;15.55;66.00;95952.47;4959437;28;20061;-47
2022/08/10 03:00:56;;;;;;;;;;;19.40;50.50;;;15.47;66.16;95951.19;4957587;28;20037;-45
2022/08/10 03:04:03;;;;;;;4.00;2.30;;;19.30;50.00;;;15.37;66.34;95946.75;4972075;28;20294;-45
2022/08/10 03:06:55;;;;;;;2.65;2.05;;;19.30;50.50;;;15.31;66.90;95955.16;4957120;28;20113;-42
2022/08/10 03:09:27;;;;;;;2.55;2.25;;;19.20;50.60;;;15.27;66.74;95957.59;4956284;28;20037;-45
2022/08/10 03:11:56;;;;;;;3.22;2.20;;;19.20;50.80;;;15.25;66.71;95952.50;4972130;28;20026;-44
2022/08/10 03:14:25;;;;;;;3.22;2.10;;;19.10;50.80;;;15.18;66.90;95952.06;4971716;28;20026;-48
2022/08/10 03:16:55;;;;;;;2.70;2.03;;;19.10;51.00;;;15.17;66.94;95952.34;4956178;28;20026;-45
2022/08/10 03:19:24;;;;;;;2.65;2.10;;;19.00;51.10;;;15.12;67.69;95957.75;4940091;28;20033;-45
2022/08/10 03:22:00;;;;;;;2.50;2.30;;;19.00;51.30;;;15.07;67.29;95955.13;4940315;28;20030;-49
2022/08/10 03:24:32;;;;;;;2.92;2.35;;;18.90;51.50;;;14.98;66.83;95960.31;4952632;28;20054;-48
2022/08/10 03:27:00;;;;;;;6.32;1.92;;;18.90;51.60;;;14.84;67.55;95960.16;4952717;28;20031;-45
2022/08/10 03:29:29;;;;;;;4.00;2.55;;;18.80;51.60;;;14.73;67.45;95956.00;4952688;28;20549;-47
2022/08/10 03:31:59;;;;;;;3.85;2.42;;;18.70;51.80;;;14.59;68.01;95958.50;4952270;28;20030;-46
2022/08/10 03:34:27;;;;;;;3.75;2.53;;;18.60;52.00;;;14.42;70.41;95953.50;4953944;28;20492;-46
2022/08/10 03:36:53;;;;;;;4.35;2.67;;;18.50;52.10;;;14.31;71.03;95958.13;4955817;28;20021;-45
2022/08/10 03:39:19;;;;;;;2.35;2.08;;;18.40;52.30;;;14.24;70.53;95954.97;4972796;28;20073;-44
2022/08/10 03:41:54;;;;;;;3.47;2.45;;;18.30;52.50;;;14.17;70.59;95951.03;4955904;28;20207;-42
2022/08/10 03:44:28;;;;;;;3.85;2.40;;;18.20;52.80;;;14.06;71.64;95945.72;4955400;28;20493;-44
2022/08/10 03:47:00;;;;;;;6.03;2.47;;;18.10;53.00;;;13.99;71.31;95944.44;4971654;28;20030;-43
2022/08/10 03:49:30;;;;;;;3.60;2.65;;;18.10;53.20;;;13.89;71.41;95950.66;4971230;28;20051;-47
2022/08/10 03:51:58;;;;;;;4.03;2.80;;;18.00;53.40;;;13.79;72.59;95956.06;4939562;28;20121;-45
2022/08/10 03:54:26;;;;;;;5.03;2.90;;;17.90;53.60;;;13.69;72.72;95954.22;4971405;28;20022;-43
2022/08/10 03:56:52;;;;;;;3.33;2.90;;;17.80;53.70;;;13.56;73.89;95955.59;4955508;28;20026;-48
2022/08/10 03:59:22;;;;;;;4.53;2.65;;;17.80;53.90;;;13.47;73.62;95959.13;4955273;28;20417;-44
2022/08/10 04:01:51;;;;;;;5.25;2.90;;;17.70;54.20;;;13.37;74.28;95963.44;4938811;28;20060;-52
2022/08/10 04:04:20;;;;;;;3.55;3.25;;;17.60;54.40;;;13.30;75.18;95956.78;4954925;28;20037;-43
2022/08/10 04:06:55;;;;;;;4.15;3.03;;;17.50;54.60;;;13.23;74.76;95962.38;4971408;28;20508;-44
2022/08/10 04:09:35;;;;;;;3.75;3.05;;;17.40;54.90;;;13.14;75.36;95964.81;4970856;28;20034;-43
2022/08/10 04:12:02;;;;;;;3.75;3.15;;;17.40;55.20;;;13.07;75.69;95968.84;4948927;28;20086;-43
2022/08/10 04:14:30;;;;;;;3.85;3.00;;;17.30;55.00;;;12.99;76.15;95975.53;4952400;28;20030;-44
2022/08/10 04:16:56;;;;;;;4.20;3.20;;;17.20;55.20;;;12.93;76.96;95971.25;4951586;28;20473;-47
2022/08/10 04:19:26;;;;;;;3.80;2.80;;;17.20;55.40;;;12.84;79.00;95973.66;4952926;28;20026;-43
2022/08/10 04:22:08;;;;;;;4.05;2.78;;;17.10;55.70;;;12.84;78.23;95970.19;4926790;28;20026;-47
2022/08/10 04:24:43;;;;;;;4.28;3.28;;;17.00;55.90;;;12.78;78.59;95984.63;4966362;28;20413;-54
2022/08/10 04:27:14;;;;;;;4.78;2.92;;;17.00;55.90;;;12.75;78.24;95983.31;4948112;28;20037;-45
2022/08/10 04:29:42;;;;;;;4.38;2.95;;;17.00;56.10;;;12.72;78.88;95981.16;4951226;28;20106;-44
2022/08/10 04:32:09;;;;;;;5.68;3.15;;;16.90;56.10;;;12.69;79.37;95993.22;4951234;28;20089;-46
2022/08/10 04:34:43;;;;;;;4.82;3.17;;;16.90;56.30;;;12.66;79.07;95998.28;4947894;28;20397;-43
2022/08/10 04:37:13;;;;;;;3.65;2.97;;;16.80;56.60;;;12.58;80.50;95994.28;4929993;28;20042;-45
2022/08/10 04:39:40;;;;;;;3.53;3.22;;;16.80;56.70;;;12.58;80.50;95993.47;4931892;29;20570;-43
2022/08/10 04:42:09;;;;;;;7.07;3.70;;;16.80;56.70;;;12.53;81.22;96001.47;4946784;28;20130;-43
2022/08/10 04:44:36;;;;;;;5.47;3.05;;;16.80;57.00;;;12.52;81.23;95999.88;4947690;28;20504;-44
2022/08/10 04:47:07;;;;;;;6.45;3.30;;;16.70;56.90;;;12.50;81.44;96003.63;4931033;28;20619;-44
2022/08/10 04:49:39;;;;;;;4.47;3.50;;;16.70;57.20;;;12.51;80.88;96004.44;4952155;28;20038;-43
2022/08/10 04:52:08;;;;;;;7.47;3.42;;;16.70;57.30;;;12.50;81.12;96003.63;4952812;28;20027;-44
2022/08/10 04:54:37;;;;;;;6.32;4.40;;;16.60;57.20;;;12.48;82.22;96003.09;4952335;28;20042;-44
2022/08/10 04:57:05;;;;;;;3.78;3.08;;;16.70;57.40;;;12.64;82.47;96003.91;4952572;28;20026;-46
2022/08/10 04:59:33;;;;;;;3.75;3.10;;;16.80;57.40;;;12.91;81.57;96014.31;4952423;28;20048;-45
2022/08/10 05:02:02;;;;;;;4.28;3.25;;;16.90;57.40;;;13.29;80.08;96012.16;4952069;28;20392;-46
2022/08/10 05:04:28;;;;;;;7.45;3.53;;;17.10;58.10;;;13.64;78.84;96010.47;4935000;28;20034;-45
2022/08/10 05:06:54;;;;;;;3.50;3.20;;;17.20;57.40;;;13.91;77.31;95998.56;4951869;28;20033;-48
2022/08/10 05:09:20;;;;;;;4.60;2.90;;;17.40;57.30;;;14.25;76.68;96004.78;4947668;28;20118;-44
2022/08/10 05:11:46;;;;;;;5.95;2.70;;;17.60;57.30;;;14.55;75.61;96003.84;4949569;28;20105;-44
2022/08/10 05:14:14;;;;;;;7.15;3.20;;;17.80;57.20;;;14.84;74.08;96010.31;4951025;28;20034;-47
2022/08/10 05:16:39;;;;;;;4.28;2.50;;;18.00;57.00;;;15.12;72.40;96014.91;4950726;28;20022;-46
2022/08/10 05:19:05;;;;;;;5.05;2.90;;;18.30;56.80;;;15.39;71.12;95997.47;4939628;28;20030;-51
2022/08/10 05:21:31;;;;;;;3.50;2.40;;;18.60;56.60;;;15.67;69.37;96007.41;4949606;28;20121;-46
2022/08/10 05:24:03;;;;;;;3.15;2.83;;;18.80;56.20;;;15.94;68.87;96017.53;4950136;28;20022;-47
2022/08/10 05:26:30;;;;;;;5.05;2.60;;;19.10;55.80;;;16.23;67.27;96018.50;4948751;28;20434;-48
2022/08/10 05:28:59;;;;;;;4.63;2.38;;;19.50;55.50;;;16.52;65.98;96013.00;4949484;28;20482;-44
2022/08/10 05:31:26;;;;;;;3.42;2.60;;;19.80;55.00;;;16.81;64.18;96016.34;4948065;29;20106;-45
2022/08/10 05:33:57;;;;;;;3.38;2.53;;;20.10;54.60;;;17.09;62.99;96008.34;4922105;29;20215;-45
2022/08/10 05:36:23;;;;;;;3.35;1.92;;;20.40;54.00;;;17.27;62.00;96012.88;4934191;29;20027;-44
2022/08/10 05:38:57;;;;;;;2.83;2.30;;;20.70;53.40;;;17.50;61.41;96015.72;4950348;29;20433;-44
2022/08/10 05:41:26;;;;;;;3.45;2.60;;;21.00;53.00;;;17.70;60.75;96018.00;4947866;29;20023;-47
2022/08/10 05:43:55;;;;;;;6.15;2.35;;;21.30;52.50;;;17.90;59.76;96021.44;4945047;28;20026;-44
2022/08/10 05:46:21;;;;;;;2.33;2.13;;;21.50;51.90;;;18.14;59.34;96026.59;4939485;29;20628;-45
2022/08/10 05:48:48;;;;;;;2.00;1.90;;;21.80;51.40;;;18.27;58.77;96018.50;4944529;29;20034;-46
2022/08/10 05:51:24;;;;;;;4.28;2.40;;;22.10;50.90;;;18.59;57.65;96026.72;4926348;29;20034;-47
2022/08/10 05:53:51;;;;;;;5.72;2.78;;;22.30;50.40;;;18.94;57.09;96022.41;4944100;29;20054;-46
2022/08/10 05:56:20;;;;;;;3.28;2.45;;;22.60;50.00;;;18.96;56.06;96012.09;4945034;29;20038;-45
2022/08/10 05:58:46;;;;;;;4.88;2.38;;;22.90;49.30;;;19.08;56.05;96017.72;4931341;29;20030;-46
2022/08/10 06:01:17;;;;;;;3.35;2.30;;;23.10;48.90;;;19.23;55.29;96015.75;4931298;29;20031;-45
2022/08/10 06:03:57;;;;;;;4.13;2.30;;;23.30;48.30;;;19.31;55.01;96012.31;4954904;28;20124;-47
2022/08/10 06:06:28;;;;;;;5.43;2.50;;;23.50;47.80;;;19.44;54.89;96016.03;4949340;28;20114;-48
2022/08/10 06:09:01;;;;;;;4.18;2.30;;;23.70;47.30;;;19.58;54.83;96016.72;4951491;29;20478;-48
2022/08/10 06:11:36;;;;;;;2.97;2.47;;;23.90;47.00;;;19.74;54.30;96015.25;4948210;29;20026;-46
2022/08/10 06:16:59;;;;;;;2.97;2.40;;;24.30;46.30;;;19.90;53.69;96020.19;4936885;28;20030;-47
2022/08/10 06:19:30;;;;;;;5.97;2.75;;;24.40;45.80;;;20.16;52.92;96023.78;4936461;29;20122;-47
2022/08/10 06:21:57;;;;;;;3.92;2.42;;;24.60;45.50;;;20.32;52.52;96022.22;4949635;29;20057;-47
2022/08/10 06:24:30;;;;;;;3.25;2.63;;;24.70;45.10;;;20.46;51.94;96019.34;4932022;29;20027;-47
2022/08/10 06:26:59;;;;;;;5.70;2.95;;;25.00;44.80;;;20.62;51.95;96021.63;4947586;28;20061;-45
2022/08/10 06:29:30;;;;;;;3.58;2.28;;;25.10;44.50;;;20.84;51.46;96023.38;4953473;28;20117;-47
2022/08/10 06:32:08;;;;;;;3.65;2.90;;;25.30;44.20;;;20.69;51.60;96025.47;4950154;28;20433;-48
2022/08/10 06:35:07;;;;;;;5.43;2.83;;;25.50;43.80;;;20.69;51.76;96024.69;4952636;28;20023;-49
2022/08/10 06:37:43;;;;;;;4.95;2.92;;;25.70;44.20;;;20.94;50.75;96026.56;4953775;28;20507;-46
2022/08/10 06:40:10;;;;;;;3.70;3.05;;;25.80;43.00;;;20.75;50.91;96023.41;4954843;28;20053;-45
2022/08/10 06:42:45;;;;;;;4.22;2.78;;;25.90;42.70;;;20.64;51.19;96017.50;4954623;28;20087;-50
2022/08/10 06:45:20;;;;;;;4.18;3.28;;;26.10;42.30;;;20.59;51.55;96023.09;4949677;28;20387;-45
2022/08/10 06:48:04;;;;;;;5.05;2.80;;;26.20;42.20;;;20.89;50.72;96023.22;4940440;28;20051;-48
2022/08/10 06:50:56;;;;;;;6.18;2.85;;;26.30;41.80;;;20.59;51.62;96025.78;4952232;28;20050;-47
2022/08/10 06:53:30;;;;;;;5.00;3.00;;;26.30;41.40;;;20.86;50.81;96021.94;4949592;28;20114;-47
2022/08/10 06:56:11;;;;;;;5.38;2.70;;;26.50;41.20;;;21.01;50.45;96026.88;4940999;28;20433;-51
2022/08/10 06:59:51;;;;;;;4.35;2.63;;;26.60;41.00;;;21.22;50.80;96028.94;4953644;28;20093;-49
2022/08/10 07:02:56;;;;;;;4.70;3.35;;;26.80;41.00;;;21.27;49.87;96024.13;4853200;28;20032;-46
2022/08/10 07:05:27;;;;;;;4.70;2.88;;;26.90;40.60;;;21.35;49.60;96029.84;4915079;28;25446;-47
2022/08/10 07:07:59;;;;;;;8.75;3.03;;;27.10;40.30;;;21.33;49.69;96019.34;4964827;28;20034;-45
2022/08/10 07:10:27;;;;;;;3.28;2.97;;;27.20;39.90;;;21.34;50.20;96025.53;4956153;28;20551;-49
2022/08/10 07:13:00;;;;;;;3.78;2.67;;;27.30;39.70;;;21.31;50.12;96020.75;4972209;28;20065;-45
2022/08/10 07:15:30;;;;;;;6.35;2.88;;;27.50;39.50;;;21.39;49.96;96018.06;4955705;28;20040;-47
2022/08/10 07:17:59;;;;;;;3.67;2.95;;;27.60;39.30;;;21.71;49.54;96011.25;4957881;28;20022;-45
2022/08/10 07:20:27;;;;;;;5.13;3.10;;;27.70;39.10;;;22.08;48.61;96013.50;4952979;28;20037;-47
2022/08/10 07:22:56;;;;;;;3.78;3.35;;;27.90;39.10;;;22.07;48.21;96017.34;4935067;28;20027;-49
2022/08/10 07:25:27;;;;;;;5.55;2.70;;;28.00;38.70;;;22.15;48.54;96021.91;4936302;28;20043;-47
2022/08/10 07:27:58;;;;;;;4.95;2.90;;;28.10;38.40;;;22.57;47.81;96014.63;4952803;28;20025;-51
2022/08/10 07:30:34;;;;;;;3.30;3.00;;;28.30;38.30;;;22.39;48.01;96011.25;4951403;28;20096;-50
2022/08/10 07:33:03;;;;;;;3.15;2.60;;;28.50;38.00;;;22.36;47.64;96009.19;4936667;28;20022;-48
2022/08/10 07:35:34;;;;;;;3.80;3.47;;;28.60;37.70;;;22.07;48.26;96006.47;4933045;29;20034;-45
2022/08/10 07:38:25;;;;;;;5.05;3.33;;;28.70;37.30;;;22.60;47.41;96000.41;4948276;28;20030;-48
2022/08/10 07:40:53;;;;;;;5.85;3.03;;;28.80;37.20;;;22.60;46.07;96002.31;4946692;28;20543;-46
2022/08/10 07:43:30;;;;;;;5.30;2.92;;;29.00;36.90;;;22.67;46.42;96005.31;4935756;28;20106;-49
2022/08/10 07:46:00;;;;;;;3.35;2.92;;;29.00;36.50;;;23.04;45.97;96011.72;4949883;28;20059;-45
2022/08/10 07:48:53;;;;;;;3.17;2.75;;;29.20;36.50;;;23.24;44.59;96003.84;4953985;28;20081;-48
2022/08/10 07:51:22;;;;;;;3.08;2.78;;;29.40;36.30;;;23.49;44.18;95999.25;4947251;28;20066;-50
2022/08/10 07:53:55;;;;;;;3.20;2.90;;;29.60;35.90;;;23.17;44.42;96003.59;4947831;28;20107;-49
2022/08/10 07:56:29;;;;;;;3.80;2.88;;;29.70;35.40;;;23.14;45.74;96007.00;4931396;29;20030;-46
2022/08/10 07:59:36;;;;;;;6.75;3.13;;;29.90;35.30;;;23.20;45.54;96009.16;4947998;28;20565;-47
2022/08/10 08:02:11;;;;;;;6.32;3.35;;;29.90;35.10;;;23.65;44.69;95999.41;4933219;28;20106;-47
2022/08/10 08:04:40;;;;;;;2.78;2.50;;;30.10;34.90;;;23.89;43.53;96007.59;4928928;29;20387;-46
2022/08/10 08:07:12;;;;;;;4.15;3.03;;;30.30;34.70;;;24.15;42.87;96006.47;4929311;29;20023;-47
2022/08/10 08:09:38;;;;;;;4.30;3.00;;;30.40;34.30;;;24.31;41.98;96004.63;4926490;29;20201;-46
2022/08/10 08:12:09;;;;;;;3.53;2.92;;;30.60;34.10;;;24.28;42.65;96007.25;4911636;29;20028;-46
2022/08/10 08:14:38;;;;;;;4.60;2.80;;;30.70;33.80;;;24.18;42.36;96008.50;4929187;29;20019;-49
2022/08/10 08:17:11;;;;;;;5.55;2.88;;;30.90;33.50;;;24.45;41.85;96004.31;4926171;29;20028;-45
2022/08/10 08:19:49;;;;;;;7.07;3.10;;;31.00;33.30;;;24.58;41.79;96005.84;4906859;29;20406;-46
2022/08/10 08:22:18;;;;;;;3.55;2.70;;;31.20;33.00;;;24.87;40.97;96003.94;4925661;29;20083;-47
2022/08/10 08:24:46;;;;;;;5.57;2.88;;;31.30;32.80;;;24.92;41.00;96004.50;4923567;29;20019;-46
2022/08/10 08:27:21;;;;;;;4.80;2.75;;;31.40;32.40;;;24.85;40.17;96011.66;4913549;29;20050;-46
2022/08/10 08:29:50;;;;;;;5.47;2.88;;;31.50;32.00;;;24.96;39.65;95999.16;4928567;29;20036;-49
2022/08/10 08:32:27;;;;;;;2.90;2.50;;;31.70;31.70;;;25.13;40.52;96009.78;4929155;29;20394;-45
2022/08/10 08:35:08;;;;;;;4.28;2.85;;;31.80;31.60;;;25.33;40.61;96009.91;4925593;29;20032;-46
2022/08/10 08:37:38;;;;;;;6.38;2.88;;;31.90;31.60;;;25.40;39.35;96007.38;4929659;29;20126;-46
2022/08/10 08:40:17;;;;;;;3.50;2.65;;;32.00;31.20;;;25.56;39.76;96013.63;4928186;29;20028;-46
2022/08/10 08:43:15;;;;;;;4.40;2.80;;;32.20;31.00;;;25.71;39.09;96017.50;4914449;29;20039;-46
2022/08/10 08:46:37;;;;;;;5.40;3.47;;;32.30;30.80;;;25.95;38.95;96010.31;4913991;29;20134;-48
2022/08/10 08:50:05;;;;;;;4.20;2.90;;;32.40;30.90;;;25.93;38.58;96009.88;4926177;29;20467;-46
2022/08/10 08:53:29;;;;;;;5.80;2.83;;;32.60;30.60;;;25.97;38.50;96014.28;4920760;29;20082;-46
2022/08/10 08:56:39;;;;;;;3.55;2.78;;;32.70;30.30;;;25.63;38.71;96010.28;4926043;29;20032;-47
2022/08/10 08:59:46;;;;;;;4.68;2.90;;;32.90;30.10;;;25.75;38.24;96006.69;4914221;29;20103;-47
2022/08/10 09:03:04;;;;;;;4.20;2.80;;;32.90;30.00;;;26.27;37.17;96011.88;4914303;29;20036;-47
2022/08/10 09:06:03;;;;;;;3.92;2.80;;;33.00;29.90;;;26.75;36.74;96014.50;4925194;29;20032;-45
2022/08/10 09:09:37;;;;;;;3.28;2.53;;;33.20;29.80;;;25.92;36.85;96006.38;4918765;29;20051;-46
2022/08/10 09:12:48;;;;;;;2.75;2.55;;;33.30;29.30;;;26.18;36.90;96016.72;4914142;29;20125;-48
2022/08/10 09:15:52;;;;;;;3.25;2.60;;;33.40;29.20;;;26.59;35.88;96000.09;4912654;29;20023;-46
2022/08/10 09:19:03;;;;;;;5.57;2.80;;;33.50;28.90;;;26.36;36.44;96003.50;4927478;29;20031;-50
2022/08/10 09:22:36;;;;;;;5.57;2.80;;;33.70;28.70;;;26.70;36.70;96001.91;4914527;29;20027;-47
2022/08/10 09:25:23;;;;;;;6.78;3.05;;;33.70;28.70;;;26.62;36.56;96008.38;4920696;29;20047;-47
2022/08/10 09:28:08;;;;;;;4.63;2.70;;;33.90;28.60;;;26.66;35.92;96002.97;4912416;29;20075;-50
2022/08/10 09:31:12;;;;;;;3.20;2.70;;;33.90;28.40;;;26.83;36.33;95990.84;4911793;29;20515;-46
2022/08/10 09:34:17;;;;;;;3.58;2.92;;;34.00;28.20;;;26.75;36.18;95995.38;4925147;29;20024;-47
2022/08/10 09:37:23;;;;;;;4.75;2.92;;;34.10;28.00;;;27.10;36.00;95999.97;4924144;29;20023;-51
2022/08/10 09:40:05;;;;;;;5.00;3.05;;;34.20;28.00;;;26.92;35.38;95996.88;4911074;29;20015;-48
2022/08/10 09:43:11;;;;;;;4.57;2.75;;;34.20;27.80;;;26.56;36.33;95995.34;4900224;29;20114;-47
2022/08/10 09:46:41;;;;;;;4.97;2.75;;;34.30;27.60;;;26.30;37.15;95985.81;4924074;29;20028;-46
2022/08/10 09:49:47;;;;;;;4.47;3.05;;;34.20;27.60;;;26.33;37.03;95993.28;4909200;29;20052;-47
2022/08/10 09:53:09;;;;;;;3.88;2.55;;;34.20;28.20;;;26.56;35.78;95976.22;4909769;29;20035;-46
2022/08/10 09:56:20;;;;;;;3.17;2.87;;;34.20;27.70;;;26.91;35.88;95989.84;4902049;29;20479;-49
2022/08/10 10:00:16;;;;;;;3.70;2.78;;;34.20;27.60;;;26.88;35.78;95993.28;4912960;29;20035;-46
2022/08/10 10:03:28;;;;;;;7.70;2.88;;;34.20;27.60;;;27.24;36.17;95988.56;4895251;29;20425;-48
2022/08/10 10:06:42;;;;;;;4.00;2.88;;;34.40;27.70;;;27.33;36.23;95992.63;4895974;29;20020;-48
2022/08/10 10:09:38;;;;;;;2.67;2.40;;;34.50;27.70;;;27.54;35.52;95980.47;4900131;29;20035;-47
2022/08/10 10:12:53;;;;;;;4.88;2.75;;;34.70;27.70;;;27.41;34.67;95985.34;4913340;29;20438;-46
2022/08/10 10:16:15;;;;;;;3.38;2.60;;;34.80;27.50;;;27.39;35.17;95988.44;4904974;29;20409;-51
2022/08/10 10:19:00;;;;;;;3.10;2.73;;;34.90;27.40;;;27.56;35.66;95986.38;4923888;29;20538;-46
2022/08/10 10:22:38;;;;;;;4.60;2.80;;;34.90;27.20;;;27.82;34.94;95983.72;4909424;29;20027;-48
2022/08/10 10:25:57;;;;;;;3.85;2.70;;;35.10;27.20;;;27.89;35.51;95983.84;4896481;29;20099;-47
2022/08/10 10:29:34;;;;;;;2.90;2.60;;;35.20;27.00;;;28.31;34.46;95977.44;4882875;29;20028;-46
2022/08/10 10:32:35;;;;;;;3.25;2.60;;;35.30;26.90;;;28.35;34.23;95969.25;4896639;29;20118;-48
2022/08/10 10:35:32;;;;;;;3.55;2.47;;;35.40;26.70;;;28.14;34.31;95967.81;4896283;29;20111;-47
2022/08/10 10:38:05;;;;;;;3.92;2.47;;;35.50;26.60;;;28.46;34.16;95983.16;4896410;29;20090;-48
2022/08/10 10:41:32;;;;;;;3.63;2.80;;;35.60;26.60;;;28.87;33.71;95984.06;4878219;29;20028;-46
2022/08/10 10:44:40;;;;;;;6.50;3.10;;;35.60;26.60;;;28.80;33.25;95993.00;4895174;29;20051;-47
2022/08/10 10:47:59;;;;;;;3.85;2.90;;;35.90;26.70;;;28.25;33.10;95978.13;4887663;29;20027;-50
2022/08/10 10:50:50;;;;;;;4.63;2.70;;;36.00;26.40;;;28.16;34.04;95992.06;4908042;23;20045;-48
2022/08/10 10:54:01;;;;;;;5.82;2.80;;;36.00;26.20;;;28.63;33.20;95992.75;4982317;28;20491;-52
2022/08/10 10:57:43;;;;;;;6.38;2.90;;;36.10;26.30;;;28.95;33.14;95984.94;4991959;28;20112;-52
2022/08/10 11:00:13;;;;;;;2.95;2.50;;;36.10;26.20;;;29.24;32.41;95992.34;4978853;28;20392;-47
2022/08/10 11:03:44;;;;;;;7.35;3.03;;;36.30;26.00;;;28.89;32.13;95984.47;4975889;28;20100;-48
2022/08/10 11:07:02;;;;;;;3.72;2.65;;;36.30;25.80;;;29.03;33.08;95975.66;4976981;28;20022;-49
2022/08/10 11:09:40;;;;;;;3.92;3.05;;;36.40;25.90;;;28.69;32.30;95985.78;4966520;28;20053;-47
2022/08/10 11:12:41;;;;;;;3.90;2.97;;;36.60;25.50;;;28.89;31.29;95989.16;4970096;28;20046;-47
2022/08/10 11:15:47;;;;;;;3.67;2.50;;;36.50;25.30;;;29.56;31.61;95980.91;4989187;28;20380;-49
2022/08/10 11:19:10;;;;;;;4.38;2.55;;;36.70;25.40;;;29.44;31.51;95987.44;4959756;28;20490;-50
2022/08/10 11:22:18;;;;;;;7.32;2.60;;;36.80;25.20;;;29.55;31.74;95998.53;4929413;28;20045;-49
2022/08/10 11:25:26;;;;;;;3.78;2.85;;;36.90;25.10;;;29.39;30.29;95990.53;4975725;28;20025;-52